Gray, Texas
Current Conditions -  °F | °C
As of 11:15 AM on Saturday 25 Oct 2014 (Local Time) from KASL Reporting Station
Clear Clear  
Wind Chill: 78°   Ceiling: Unl
Heat Index: 80°   Visibility: 10mi
Dew Point: 62°   Wind: 7mph
Humidity: 57%   Direction: 230°SW
Pressure: 30.19"   Gusts: NA
Location:  32.7902°N, 94.3019°W
Report Text: KASL 251615Z AUTO 23006KT 10SM CLR 26/17 A3019 RMK AO1 T02580166
Loading
Personal Weather Stations






























Interactive Weather Map
Tropical Storm Tracking
New forecast layout! Learn more

10-Day Weather Forecast

Advertisements
Track Severe Weather on mobile